createdAt,value
2024-03-30T00:00:46.470Z,87457.00
2024-03-30T00:01:46.462Z,87452.00
2024-03-30T00:02:46.512Z,87455.00
2024-03-30T00:03:46.464Z,87441.00
2024-03-30T00:04:46.463Z,87444.00
2024-03-30T00:05:46.500Z,87441.00
2024-03-30T00:06:46.509Z,87443.00
2024-03-30T00:07:46.546Z,87444.00
2024-03-30T00:08:46.616Z,87446.00
2024-03-30T00:09:46.640Z,87443.00
2024-03-30T00:10:46.674Z,87444.00
2024-03-30T00:11:46.727Z,87442.00
2024-03-30T00:12:46.782Z,87453.00
2024-03-30T00:13:46.809Z,87451.00
2024-03-30T00:14:46.866Z,87441.00
2024-03-30T00:15:46.907Z,87450.00
2024-03-30T00:16:46.968Z,87458.00
2024-03-30T00:17:47.031Z,87453.00
2024-03-30T00:18:47.067Z,87440.00
2024-03-30T00:19:47.148Z,87448.00
2024-03-30T00:20:47.174Z,87434.00
2024-03-30T00:21:47.191Z,87431.00
2024-03-30T00:22:47.248Z,87434.00
2024-03-30T00:23:47.327Z,87437.00
2024-03-30T00:24:47.340Z,87439.00
2024-03-30T00:25:47.385Z,87427.00
2024-03-30T00:26:47.430Z,87435.00
2024-03-30T00:27:47.474Z,87433.00
2024-03-30T00:28:47.517Z,87432.00
2024-03-30T00:29:47.548Z,87424.00
2024-03-30T00:30:47.521Z,87423.00
2024-03-30T00:31:47.524Z,87414.00
2024-03-30T00:32:47.539Z,87417.00
2024-03-30T00:33:47.530Z,87415.00
2024-03-30T00:34:47.532Z,87418.00
2024-03-30T00:35:47.551Z,87405.00
2024-03-30T00:36:47.542Z,87410.00
2024-03-30T00:37:47.550Z,87408.00
2024-03-30T00:38:47.568Z,87403.00
2024-03-30T00:39:47.539Z,87409.00
2024-03-30T00:40:47.547Z,87401.00
2024-03-30T00:41:47.557Z,87392.00
2024-03-30T00:42:57.225Z,87397.00
2024-03-30T00:43:48.553Z,87401.00
2024-03-30T00:44:47.564Z,87403.00
2024-03-30T00:45:47.550Z,87397.00
2024-03-30T00:46:47.555Z,87388.00
2024-03-30T00:47:48.125Z,87393.00
2024-03-30T00:48:47.558Z,87387.00
2024-03-30T00:49:47.553Z,87382.00
2024-03-30T00:50:47.556Z,87389.00
2024-03-30T00:51:47.567Z,87382.00
2024-03-30T00:52:47.586Z,87379.00
2024-03-30T00:53:47.557Z,87370.00
2024-03-30T00:54:47.552Z,87374.00
2024-03-30T00:55:47.548Z,87373.00
2024-03-30T00:56:47.604Z,87372.00
2024-03-30T00:57:47.650Z,87369.00
2024-03-30T00:58:47.679Z,87369.00
2024-03-30T00:59:47.734Z,87359.00
2024-03-30T01:00:47.777Z,87373.00
2024-03-30T01:01:47.801Z,87372.00
2024-03-30T01:02:47.892Z,87368.00
2024-03-30T01:03:47.909Z,87358.00
2024-03-30T01:04:47.958Z,87360.00
2024-03-30T01:05:48.014Z,87364.00
2024-03-30T01:06:48.057Z,87356.00
2024-03-30T01:07:48.096Z,87351.00
2024-03-30T01:08:48.149Z,87346.00
2024-03-30T01:09:48.188Z,87347.00
2024-03-30T01:10:48.234Z,87346.00
2024-03-30T01:11:48.278Z,87344.00
2024-03-30T01:12:48.277Z,87337.00
2024-03-30T01:13:48.286Z,87338.00
2024-03-30T01:14:48.284Z,87345.00
2024-03-30T01:15:48.300Z,87335.00
2024-03-30T01:16:48.302Z,87331.00
2024-03-30T01:17:48.299Z,87333.00
2024-03-30T01:18:48.290Z,87317.00
2024-03-30T01:19:48.283Z,87319.00
2024-03-30T01:20:48.320Z,87333.00
2024-03-30T01:21:48.299Z,87319.00
2024-03-30T01:22:48.299Z,87318.00
2024-03-30T01:23:48.356Z,87320.00
2024-03-30T01:24:48.315Z,87323.00
2024-03-30T01:25:48.373Z,87331.00
2024-03-30T01:26:48.436Z,87320.00
2024-03-30T01:27:48.484Z,87301.00
2024-03-30T01:28:48.539Z,87322.00
2024-03-30T01:29:48.551Z,87334.00
2024-03-30T01:30:48.600Z,87332.00
2024-03-30T01:31:48.660Z,87328.00
2024-03-30T01:32:48.765Z,87332.00
2024-03-30T01:33:48.728Z,87347.00
2024-03-30T01:34:48.731Z,87318.00
2024-03-30T01:35:48.745Z,87321.00
2024-03-30T01:36:48.737Z,87330.00
2024-03-30T01:37:48.766Z,87327.00
2024-03-30T01:38:48.735Z,87315.00
2024-03-30T01:39:48.734Z,87329.00
2024-03-30T01:40:48.740Z,87313.00
2024-03-30T01:41:48.749Z,87324.00
2024-03-30T01:42:48.735Z,87320.00
2024-03-30T01:43:48.756Z,87328.00
2024-03-30T01:44:48.823Z,87320.00
2024-03-30T01:45:48.891Z,87319.00
2024-03-30T01:46:48.929Z,87317.00
2024-03-30T01:47:48.993Z,87311.00
2024-03-30T01:48:49.046Z,87319.00
2024-03-30T01:49:49.113Z,87310.00
2024-03-30T01:50:49.164Z,87318.00
2024-03-30T01:51:49.219Z,87315.00
2024-03-30T01:52:52.284Z,87326.00
2024-03-30T01:53:50.321Z,87317.00
2024-03-30T01:54:49.290Z,87310.00
2024-03-30T01:55:49.316Z,87321.00
2024-03-30T01:56:49.299Z,87326.00
2024-03-30T01:57:49.314Z,87332.00
2024-03-30T01:58:49.297Z,87326.00
2024-03-30T01:59:49.349Z,87324.00
2024-03-30T02:00:49.301Z,87317.00
2024-03-30T02:01:49.303Z,87340.00
2024-03-30T02:02:49.348Z,87316.00
2024-03-30T02:03:49.356Z,87340.00
2024-03-30T02:04:49.417Z,87327.00
2024-03-30T02:05:49.447Z,87347.00
2024-03-30T02:06:49.440Z,87339.00
2024-03-30T02:07:49.440Z,87331.00
2024-03-30T02:08:49.459Z,87338.00
2024-03-30T02:09:49.526Z,87346.00
2024-03-30T02:10:49.618Z,87339.00
2024-03-30T02:11:49.661Z,87345.00
2024-03-30T02:12:49.719Z,87339.00
2024-03-30T02:13:49.770Z,87348.00
2024-03-30T02:14:49.852Z,87341.00
2024-03-30T02:15:49.886Z,87357.00
2024-03-30T02:16:49.967Z,87337.00
2024-03-30T02:17:50.096Z,87358.00
2024-03-30T02:18:50.093Z,87367.00
2024-03-30T02:19:50.142Z,87364.00
2024-03-30T02:20:50.241Z,87361.00
2024-03-30T02:21:50.244Z,87357.00
2024-03-30T02:22:50.331Z,87357.00
2024-03-30T02:23:50.410Z,87362.00
2024-03-30T02:24:50.452Z,87356.00
2024-03-30T02:25:50.499Z,87378.00
2024-03-30T02:26:50.591Z,87352.00
2024-03-30T02:27:50.634Z,87366.00
2024-03-30T02:28:50.670Z,87366.00
2024-03-30T02:29:50.772Z,87374.00
2024-03-30T02:30:50.781Z,87374.00
2024-03-30T02:31:50.852Z,87383.00
2024-03-30T02:32:50.924Z,87382.00
2024-03-30T02:33:50.972Z,87366.00
2024-03-30T02:34:51.027Z,87378.00
2024-03-30T02:35:51.152Z,87381.00
2024-03-30T02:36:51.144Z,87383.00
2024-03-30T02:37:51.205Z,87385.00
2024-03-30T02:38:51.271Z,87373.00
2024-03-30T02:39:51.317Z,87373.00
2024-03-30T02:40:51.378Z,87372.00
2024-03-30T02:41:51.447Z,87373.00
2024-03-30T02:42:51.495Z,87381.00
2024-03-30T02:43:51.551Z,87389.00
2024-03-30T02:44:51.613Z,87388.00
2024-03-30T02:45:51.674Z,87398.00
2024-03-30T02:46:51.740Z,87391.00
2024-03-30T02:47:51.805Z,87390.00
2024-03-30T02:48:51.902Z,87404.00
2024-03-30T02:49:51.893Z,87402.00
2024-03-30T02:50:52.002Z,87398.00
2024-03-30T02:51:52.020Z,87398.00
2024-03-30T02:52:52.083Z,87399.00
2024-03-30T02:53:52.153Z,87409.00
2024-03-30T02:54:52.205Z,87407.00
2024-03-30T02:55:52.196Z,87410.00
2024-03-30T02:56:52.211Z,87412.00
2024-03-30T02:57:52.198Z,87407.00
2024-03-30T02:58:52.200Z,87405.00
2024-03-30T02:59:52.204Z,87411.00
2024-03-30T03:00:52.208Z,87411.00
2024-03-30T03:01:52.220Z,87415.00
2024-03-30T03:02:52.237Z,87411.00
2024-03-30T03:03:52.195Z,87406.00
2024-03-30T03:04:52.207Z,87404.00
2024-03-30T03:05:52.205Z,87405.00
2024-03-30T03:06:52.282Z,87403.00
2024-03-30T03:07:52.310Z,87405.00
2024-03-30T03:08:52.427Z,87410.00
2024-03-30T03:09:52.405Z,87394.00
2024-03-30T03:10:52.495Z,87395.00
2024-03-30T03:11:52.574Z,87394.00
2024-03-30T03:12:52.589Z,87396.00
2024-03-30T03:13:52.594Z,87395.00
2024-03-30T03:14:52.665Z,87394.00
2024-03-30T03:15:52.678Z,87393.00
2024-03-30T03:16:52.738Z,87390.00
2024-03-30T03:17:52.804Z,87386.00
2024-03-30T03:18:52.840Z,87390.00
2024-03-30T03:19:52.879Z,87397.00
2024-03-30T03:20:52.953Z,87387.00
2024-03-30T03:21:52.984Z,87388.00
2024-03-30T03:22:53.046Z,87386.00
2024-03-30T03:23:53.093Z,87401.00
2024-03-30T03:24:53.132Z,87399.00
2024-03-30T03:25:53.186Z,87389.00
2024-03-30T03:26:53.231Z,87389.00
2024-03-30T03:27:53.285Z,87386.00
2024-03-30T03:28:53.348Z,87399.00
2024-03-30T03:29:53.387Z,87393.00
2024-03-30T03:30:53.451Z,87391.00
2024-03-30T03:31:53.503Z,87390.00
2024-03-30T03:32:53.611Z,87397.00
2024-03-30T03:33:53.619Z,87390.00
2024-03-30T03:34:53.711Z,87386.00
2024-03-30T03:35:53.802Z,87391.00
2024-03-30T03:36:53.822Z,87390.00
2024-03-30T03:37:53.897Z,87391.00
2024-03-30T03:38:53.994Z,87392.00
2024-03-30T03:39:54.005Z,87400.00
2024-03-30T03:40:54.050Z,87403.00
2024-03-30T03:41:54.076Z,87398.00
2024-03-30T03:42:54.106Z,87400.00
2024-03-30T03:43:54.096Z,87406.00
2024-03-30T03:44:54.113Z,87404.00
2024-03-30T03:45:54.101Z,87392.00
2024-03-30T03:46:54.102Z,87392.00
2024-03-30T03:47:54.108Z,87396.00
2024-03-30T03:48:54.110Z,87402.00
2024-03-30T03:49:54.104Z,87403.00
2024-03-30T03:50:54.137Z,87400.00
2024-03-30T03:51:54.111Z,87407.00
2024-03-30T03:52:54.115Z,87405.00
2024-03-30T03:53:54.121Z,87405.00
2024-03-30T03:54:54.108Z,87404.00
2024-03-30T03:55:54.168Z,87399.00
2024-03-30T03:56:54.269Z,87394.00
2024-03-30T03:57:54.267Z,87393.00
2024-03-30T03:58:54.294Z,87395.00
2024-03-30T03:59:54.335Z,87393.00
2024-03-30T04:00:54.363Z,87398.00
2024-03-30T04:01:54.403Z,87394.00
2024-03-30T04:02:54.458Z,87389.00
2024-03-30T04:03:54.442Z,87398.00
2024-03-30T04:04:54.470Z,87399.00
2024-03-30T04:05:54.488Z,87393.00
2024-03-30T04:06:54.522Z,87400.00
2024-03-30T04:07:54.540Z,87402.00
2024-03-30T04:08:54.551Z,87408.00
2024-03-30T04:09:54.551Z,87401.00
2024-03-30T04:10:54.571Z,87403.00
2024-03-30T04:11:54.625Z,87408.00
2024-03-30T04:12:54.628Z,87405.00
2024-03-30T04:13:54.632Z,87405.00
2024-03-30T04:14:54.673Z,87413.00
2024-03-30T04:15:54.693Z,87414.00
2024-03-30T04:16:54.722Z,87414.00
2024-03-30T04:17:54.748Z,87408.00
2024-03-30T04:18:54.768Z,87411.00
2024-03-30T04:19:54.803Z,87411.00
2024-03-30T04:20:54.839Z,87415.00
2024-03-30T04:21:54.868Z,87414.00
2024-03-30T04:23:02.073Z,87417.00
2024-03-30T04:24:02.061Z,87411.00
2024-03-30T04:25:02.085Z,87415.00
2024-03-30T04:26:02.083Z,87409.00
2024-03-30T04:27:02.095Z,87418.00
2024-03-30T04:28:02.089Z,87416.00
2024-03-30T04:29:02.088Z,87411.00
2024-03-30T04:30:02.191Z,87415.00
2024-03-30T04:31:09.370Z,87408.00
2024-03-30T04:32:09.372Z,87413.00
2024-03-30T04:33:09.374Z,87410.00
2024-03-30T04:34:09.374Z,87414.00
2024-03-30T04:35:09.358Z,87422.00
2024-03-30T04:36:09.358Z,87422.00
2024-03-30T04:37:09.374Z,87419.00
2024-03-30T04:38:09.374Z,87420.00
2024-03-30T04:39:09.364Z,87415.00
2024-03-30T04:40:09.363Z,87423.00
2024-03-30T04:41:09.374Z,87430.00
2024-03-30T04:42:09.358Z,87423.00
2024-03-30T04:43:09.366Z,87423.00
2024-03-30T04:44:09.373Z,87427.00
2024-03-30T04:45:09.374Z,87425.00
2024-03-30T04:46:09.392Z,87422.00
2024-03-30T04:47:09.385Z,87422.00
2024-03-30T04:48:09.379Z,87421.00
2024-03-30T04:49:12.276Z,87422.00
2024-03-30T04:50:09.369Z,87424.00
2024-03-30T04:51:09.376Z,87424.00
2024-03-30T04:52:09.375Z,87422.00
2024-03-30T04:53:09.388Z,87419.00
2024-03-30T04:54:09.383Z,87421.00
2024-03-30T04:55:09.377Z,87425.00
2024-03-30T04:56:09.380Z,87424.00
2024-03-30T04:57:09.371Z,87416.00
2024-03-30T04:58:09.375Z,87414.00
2024-03-30T04:59:09.371Z,87424.00
2024-03-30T05:00:09.395Z,87424.00
2024-03-30T05:01:09.392Z,87420.00
2024-03-30T05:02:09.379Z,87422.00
2024-03-30T05:03:09.389Z,87418.00
2024-03-30T05:04:09.386Z,87417.00
2024-03-30T05:05:09.397Z,87426.00
2024-03-30T05:06:09.389Z,87431.00
2024-03-30T05:07:09.404Z,87433.00
2024-03-30T05:08:09.424Z,87429.00
2024-03-30T05:09:09.389Z,87423.00
2024-03-30T05:10:09.397Z,87428.00
2024-03-30T05:11:09.394Z,87431.00
2024-03-30T05:12:09.395Z,87418.00
2024-03-30T05:13:09.402Z,87418.00
2024-03-30T05:14:09.410Z,87429.00
2024-03-30T05:15:09.401Z,87424.00
2024-03-30T05:16:09.461Z,87419.00
2024-03-30T05:17:09.405Z,87434.00
2024-03-30T05:18:09.425Z,87431.00
2024-03-30T05:19:09.419Z,87436.00
2024-03-30T05:20:09.484Z,87430.00
2024-03-30T05:21:09.546Z,87423.00
2024-03-30T05:22:09.602Z,87422.00
2024-03-30T05:23:09.659Z,87423.00
2024-03-30T05:24:09.702Z,87418.00
2024-03-30T05:25:09.742Z,87421.00
2024-03-30T05:26:09.807Z,87420.00
2024-03-30T05:27:09.858Z,87429.00
2024-03-30T05:28:09.912Z,87428.00
2024-03-30T05:29:09.963Z,87426.00
2024-03-30T05:30:10.005Z,87430.00
2024-03-30T05:31:10.077Z,87431.00
2024-03-30T05:32:10.133Z,87424.00
2024-03-30T05:33:10.201Z,87428.00
2024-03-30T05:34:10.254Z,87426.00
2024-03-30T05:35:10.313Z,87425.00
2024-03-30T05:36:10.357Z,87426.00
2024-03-30T05:37:10.398Z,87429.00
2024-03-30T05:38:10.458Z,87429.00
2024-03-30T05:39:10.520Z,87431.00
2024-03-30T05:40:10.528Z,87424.00
2024-03-30T05:41:10.523Z,87421.00
2024-03-30T05:42:10.513Z,87420.00
2024-03-30T05:43:10.521Z,87418.00
2024-03-30T05:44:10.532Z,87426.00
2024-03-30T05:45:10.528Z,87424.00
2024-03-30T05:46:10.546Z,87423.00
2024-03-30T05:47:12.474Z,87427.00
2024-03-30T05:48:10.524Z,87424.00
2024-03-30T05:49:10.526Z,87422.00
2024-03-30T05:50:10.536Z,87419.00
2024-03-30T05:51:10.522Z,87417.00
2024-03-30T05:52:10.521Z,87427.00
2024-03-30T05:53:10.531Z,87430.00
2024-03-30T05:54:10.524Z,87424.00
2024-03-30T05:55:10.532Z,87427.00
2024-03-30T05:56:10.523Z,87429.00
2024-03-30T05:57:10.538Z,87427.00
2024-03-30T05:58:10.529Z,87421.00
2024-03-30T05:59:10.530Z,87419.00
2024-03-30T06:00:10.530Z,87424.00
2024-03-30T06:01:10.537Z,87420.00
2024-03-30T06:02:10.547Z,87423.00
2024-03-30T06:03:10.549Z,87421.00
2024-03-30T06:04:10.527Z,87423.00
2024-03-30T06:05:10.540Z,87416.00
2024-03-30T06:06:10.532Z,87418.00
2024-03-30T06:07:10.556Z,87418.00
2024-03-30T06:08:10.544Z,87418.00
2024-03-30T06:09:10.547Z,87422.00
2024-03-30T06:10:11.606Z,87413.00
2024-03-30T06:11:10.559Z,87416.00
2024-03-30T06:12:10.543Z,87424.00
2024-03-30T06:13:10.542Z,87421.00
2024-03-30T06:14:10.552Z,87417.00
2024-03-30T06:15:10.558Z,87420.00
2024-03-30T06:16:10.575Z,87422.00
2024-03-30T06:17:10.555Z,87420.00
2024-03-30T06:18:10.558Z,87424.00
2024-03-30T06:19:10.548Z,87419.00
2024-03-30T06:20:10.543Z,87421.00
2024-03-30T06:21:10.549Z,87425.00
2024-03-30T06:22:10.551Z,87426.00
2024-03-30T06:23:10.560Z,87426.00
2024-03-30T06:24:10.559Z,87427.00
2024-03-30T06:25:10.563Z,87419.00
2024-03-30T06:26:10.588Z,87408.00
2024-03-30T06:27:10.649Z,87410.00
2024-03-30T06:28:10.707Z,87411.00
2024-03-30T06:29:10.763Z,87415.00
2024-03-30T06:30:10.780Z,87412.00
2024-03-30T06:31:10.776Z,87421.00
2024-03-30T06:32:10.770Z,87413.00
2024-03-30T06:33:10.776Z,87404.00
2024-03-30T06:34:10.777Z,87406.00
2024-03-30T06:35:10.773Z,87404.00
2024-03-30T06:36:10.771Z,87400.00
2024-03-30T06:37:10.785Z,87399.00
2024-03-30T06:38:10.781Z,87401.00
2024-03-30T06:39:10.774Z,87403.00
2024-03-30T06:40:10.817Z,87406.00
2024-03-30T06:41:10.870Z,87403.00
2024-03-30T06:42:10.923Z,87408.00
2024-03-30T06:43:10.981Z,87400.00
2024-03-30T06:44:11.046Z,87401.00
2024-03-30T06:45:11.119Z,87401.00
2024-03-30T06:46:11.174Z,87401.00
2024-03-30T06:47:11.258Z,87390.00
2024-03-30T06:48:11.313Z,87399.00
2024-03-30T06:49:11.385Z,87398.00
2024-03-30T06:50:11.443Z,87390.00
2024-03-30T06:51:11.511Z,87393.00
2024-03-30T06:52:11.589Z,87392.00
2024-03-30T06:53:11.640Z,87394.00
2024-03-30T06:54:11.712Z,87399.00
2024-03-30T06:55:11.782Z,87397.00
2024-03-30T06:56:11.845Z,87410.00
2024-03-30T06:57:11.924Z,87400.00
2024-03-30T06:58:11.984Z,87394.00
2024-03-30T06:59:12.040Z,87392.00
2024-03-30T07:00:12.144Z,87398.00
2024-03-30T07:01:12.182Z,87403.00
2024-03-30T07:02:12.255Z,87400.00
2024-03-30T07:03:12.305Z,87403.00
2024-03-30T07:04:12.373Z,87404.00
2024-03-30T07:05:12.431Z,87405.00
2024-03-30T07:06:12.499Z,87408.00
2024-03-30T07:07:15.015Z,87409.00
2024-03-30T07:08:12.577Z,87403.00
2024-03-30T07:09:12.575Z,87420.00
2024-03-30T07:10:12.583Z,87409.00
2024-03-30T07:11:12.576Z,87412.00
2024-03-30T07:12:12.585Z,87415.00
2024-03-30T07:13:12.585Z,87410.00
2024-03-30T07:14:12.583Z,87405.00
2024-03-30T07:15:12.595Z,87414.00
2024-03-30T07:16:12.597Z,87417.00
2024-03-30T07:17:14.932Z,87415.00
2024-03-30T07:18:12.823Z,87411.00
2024-03-30T07:19:12.888Z,87410.00
2024-03-30T07:20:12.954Z,87403.00
2024-03-30T07:21:13.024Z,87411.00
2024-03-30T07:22:13.087Z,87408.00
2024-03-30T07:23:13.122Z,87418.00
2024-03-30T07:24:13.188Z,87418.00
2024-03-30T07:25:13.240Z,87413.00
2024-03-30T07:26:13.303Z,87405.00
2024-03-30T07:27:13.370Z,87410.00
2024-03-30T07:28:13.435Z,87416.00
2024-03-30T07:29:13.514Z,87419.00
2024-03-30T07:30:13.570Z,87413.00
2024-03-30T07:31:13.632Z,87407.00
2024-03-30T07:32:13.702Z,87416.00
2024-03-30T07:33:13.765Z,87423.00
2024-03-30T07:34:13.829Z,87418.00
2024-03-30T07:35:13.917Z,87412.00
2024-03-30T07:36:13.965Z,87411.00
2024-03-30T07:37:14.062Z,87410.00
2024-03-30T07:38:14.103Z,87413.00
2024-03-30T07:39:14.164Z,87422.00
2024-03-30T07:40:14.229Z,87423.00
2024-03-30T07:41:14.259Z,87417.00
2024-03-30T07:42:14.322Z,87421.00
2024-03-30T07:43:14.367Z,87417.00
2024-03-30T07:44:14.385Z,87423.00
2024-03-30T07:45:14.430Z,87421.00
2024-03-30T07:46:14.488Z,87424.00
2024-03-30T07:47:14.505Z,87430.00
2024-03-30T07:48:14.520Z,87428.00
2024-03-30T07:49:14.535Z,87427.00
2024-03-30T07:50:14.549Z,87419.00
2024-03-30T07:51:14.573Z,87423.00
2024-03-30T07:52:14.611Z,87432.00
2024-03-30T07:53:14.658Z,87430.00
2024-03-30T07:54:14.684Z,87421.00
2024-03-30T07:55:14.707Z,87425.00
2024-03-30T07:56:14.737Z,87426.00
2024-03-30T07:57:14.752Z,87427.00
2024-03-30T07:58:14.796Z,87425.00
2024-03-30T07:59:14.824Z,87415.00
2024-03-30T08:00:14.866Z,87419.00
2024-03-30T08:01:14.872Z,87423.00
2024-03-30T08:02:14.905Z,87431.00
2024-03-30T08:03:14.952Z,87435.00
2024-03-30T08:04:14.959Z,87432.00
2024-03-30T08:05:14.973Z,87437.00
2024-03-30T08:06:15.002Z,87431.00
2024-03-30T08:07:15.042Z,87433.00
2024-03-30T08:08:15.051Z,87438.00
2024-03-30T08:09:15.101Z,87427.00
2024-03-30T08:10:15.142Z,87438.00
2024-03-30T08:11:15.168Z,87441.00
2024-03-30T08:12:15.211Z,87440.00
2024-03-30T08:13:15.273Z,87440.00
2024-03-30T08:14:15.268Z,87439.00
2024-03-30T08:15:15.291Z,87445.00
2024-03-30T08:16:15.382Z,87439.00
2024-03-30T08:17:15.388Z,87421.00
2024-03-30T08:18:15.452Z,87445.00
2024-03-30T08:19:15.510Z,87438.00
2024-03-30T08:20:15.558Z,87440.00
2024-03-30T08:21:15.597Z,87432.00
2024-03-30T08:22:15.626Z,87435.00
2024-03-30T08:23:15.663Z,87432.00
2024-03-30T08:24:15.684Z,87425.00
2024-03-30T08:25:15.748Z,87433.00
2024-03-30T08:26:15.807Z,87434.00
2024-03-30T08:27:15.842Z,87432.00
2024-03-30T08:28:15.892Z,87429.00
2024-03-30T08:29:15.910Z,87424.00
2024-03-30T08:30:15.956Z,87426.00
2024-03-30T08:31:15.988Z,87430.00
2024-03-30T08:32:16.025Z,87428.00
2024-03-30T08:33:16.083Z,87433.00
2024-03-30T08:34:18.412Z,87430.00
2024-03-30T08:35:16.090Z,87431.00
2024-03-30T08:36:16.083Z,87425.00
2024-03-30T08:37:16.085Z,87427.00
2024-03-30T08:38:16.094Z,87421.00
2024-03-30T08:39:16.104Z,87432.00
2024-03-30T08:40:16.089Z,87429.00
2024-03-30T08:41:16.097Z,87427.00
2024-03-30T08:42:18.206Z,87425.00
2024-03-30T08:43:16.118Z,87429.00
2024-03-30T08:44:16.098Z,87423.00
2024-03-30T08:45:16.108Z,87425.00
2024-03-30T08:46:16.093Z,87426.00
2024-03-30T08:47:16.099Z,87421.00
2024-03-30T08:48:16.109Z,87418.00
2024-03-30T08:49:16.113Z,87422.00
2024-03-30T08:50:16.117Z,87430.00
2024-03-30T08:51:16.115Z,87419.00
2024-03-30T08:52:16.108Z,87414.00
2024-03-30T08:53:16.158Z,87424.00
2024-03-30T08:54:16.193Z,87437.00
2024-03-30T08:55:16.250Z,87428.00
2024-03-30T08:56:16.279Z,87417.00
2024-03-30T08:57:16.324Z,87421.00
2024-03-30T08:58:16.351Z,87421.00
2024-03-30T08:59:16.380Z,87420.00
2024-03-30T09:00:16.420Z,87430.00
2024-03-30T09:01:16.473Z,87421.00
2024-03-30T09:02:16.508Z,87420.00
2024-03-30T09:03:16.562Z,87413.00
2024-03-30T09:04:16.590Z,87414.00
2024-03-30T09:05:16.647Z,87419.00
2024-03-30T09:06:16.695Z,87426.00
2024-03-30T09:07:16.721Z,87423.00
2024-03-30T09:08:16.761Z,87424.00
2024-03-30T09:09:16.812Z,87415.00
2024-03-30T09:10:16.822Z,87414.00
2024-03-30T09:11:16.871Z,87417.00
2024-03-30T09:12:16.905Z,87413.00
2024-03-30T09:13:16.938Z,87406.00
2024-03-30T09:14:16.952Z,87407.00
2024-03-30T09:15:17.006Z,87406.00
2024-03-30T09:16:17.070Z,87401.00
2024-03-30T09:17:17.078Z,87400.00
2024-03-30T09:18:17.121Z,87401.00
2024-03-30T09:19:17.154Z,87412.00
2024-03-30T09:20:17.183Z,87391.00
2024-03-30T09:21:17.204Z,87394.00
2024-03-30T09:22:17.250Z,87397.00
2024-03-30T09:23:17.329Z,87395.00
2024-03-30T09:24:17.379Z,87384.00
2024-03-30T09:25:17.394Z,87389.00
2024-03-30T09:26:17.439Z,87391.00
2024-03-30T09:27:17.483Z,87385.00
2024-03-30T09:28:17.579Z,87384.00
2024-03-30T09:29:17.627Z,87388.00
2024-03-30T09:30:17.689Z,87384.00
2024-03-30T09:31:17.743Z,87390.00
2024-03-30T09:32:17.773Z,87380.00
2024-03-30T09:33:17.830Z,87376.00
2024-03-30T09:34:29.302Z,87380.00
2024-03-30T09:35:18.907Z,87365.00
2024-03-30T09:36:17.868Z,87367.00
2024-03-30T09:37:17.899Z,87368.00
2024-03-30T09:38:17.913Z,87359.00
2024-03-30T09:39:17.873Z,87366.00
2024-03-30T09:40:17.879Z,87366.00
2024-03-30T09:41:17.882Z,87368.00
2024-03-30T09:42:17.882Z,87365.00
2024-03-30T09:43:17.898Z,87362.00
2024-03-30T09:44:17.915Z,87365.00
2024-03-30T09:45:17.887Z,87363.00
2024-03-30T09:46:17.890Z,87364.00
2024-03-30T09:47:17.887Z,87367.00
2024-03-30T09:48:17.908Z,87364.00
2024-03-30T09:49:17.907Z,87362.00
2024-03-30T09:50:17.908Z,87365.00
2024-03-30T09:51:17.893Z,87360.00
2024-03-30T09:52:17.910Z,87355.00
2024-03-30T09:53:17.905Z,87365.00
2024-03-30T09:54:17.897Z,87360.00
2024-03-30T09:55:17.898Z,87355.00
2024-03-30T09:56:17.901Z,87351.00
2024-03-30T09:57:17.899Z,87345.00
2024-03-30T09:58:17.914Z,87345.00
2024-03-30T09:59:17.970Z,87352.00
2024-03-30T10:00:18.033Z,87347.00
2024-03-30T10:01:18.099Z,87327.00
2024-03-30T10:02:18.170Z,87341.00
2024-03-30T10:03:18.231Z,87340.00
2024-03-30T10:04:18.295Z,87337.00
2024-03-30T10:05:32.544Z,87339.00
2024-03-30T10:06:19.367Z,87336.00
2024-03-30T10:07:18.374Z,87330.00
2024-03-30T10:08:18.379Z,87328.00
2024-03-30T10:09:18.386Z,87338.00
2024-03-30T10:10:18.382Z,87341.00
2024-03-30T10:11:18.370Z,87331.00
2024-03-30T10:12:18.378Z,87336.00
2024-03-30T10:13:18.370Z,87343.00
2024-03-30T10:14:18.377Z,87343.00
2024-03-30T10:15:18.386Z,87343.00
2024-03-30T10:16:18.824Z,87342.00
2024-03-30T10:17:18.479Z,87353.00
2024-03-30T10:18:18.549Z,87343.00
2024-03-30T10:19:18.594Z,87332.00
2024-03-30T10:20:18.641Z,87341.00
2024-03-30T10:21:18.704Z,87334.00
2024-03-30T10:22:18.758Z,87341.00
2024-03-30T10:23:18.804Z,87338.00
2024-03-30T10:24:18.853Z,87344.00
2024-03-30T10:25:18.893Z,87348.00
2024-03-30T10:26:18.923Z,87340.00
2024-03-30T10:27:18.950Z,87334.00
2024-03-30T10:28:19.012Z,87337.00
2024-03-30T10:29:19.035Z,87335.00
2024-03-30T10:30:19.093Z,87342.00
2024-03-30T10:31:19.115Z,87339.00
2024-03-30T10:32:19.172Z,87343.00
2024-03-30T10:33:19.199Z,87336.00
2024-03-30T10:34:19.247Z,87335.00
2024-03-30T10:35:19.279Z,87332.00
2024-03-30T10:36:19.341Z,87328.00
2024-03-30T10:37:19.395Z,87330.00
2024-03-30T10:38:19.431Z,87332.00
2024-03-30T10:39:19.479Z,87338.00
2024-03-30T10:40:19.540Z,87334.00
2024-03-30T10:41:19.600Z,87326.00
2024-03-30T10:42:19.634Z,87321.00
2024-03-30T10:43:22.070Z,87327.00
2024-03-30T10:44:19.685Z,87328.00
2024-03-30T10:45:19.683Z,87332.00
2024-03-30T10:46:19.679Z,87329.00
2024-03-30T10:47:19.678Z,87342.00
2024-03-30T10:48:19.672Z,87329.00
2024-03-30T10:49:19.679Z,87329.00
2024-03-30T10:50:23.298Z,87316.00
2024-03-30T10:51:20.691Z,87324.00
2024-03-30T10:52:19.680Z,87314.00
2024-03-30T10:53:19.697Z,87322.00
2024-03-30T10:54:19.716Z,87322.00
2024-03-30T10:55:19.682Z,87324.00
2024-03-30T10:56:22.847Z,87326.00
2024-03-30T10:57:19.691Z,87324.00
2024-03-30T10:58:19.691Z,87326.00
2024-03-30T10:59:19.704Z,87347.00
2024-03-30T11:00:19.706Z,87325.00
2024-03-30T11:01:19.687Z,87323.00
2024-03-30T11:02:21.234Z,87314.00
2024-03-30T11:03:19.688Z,87324.00
2024-03-30T11:04:19.719Z,87318.00
2024-03-30T11:05:19.712Z,87324.00
2024-03-30T11:06:19.706Z,87314.00
2024-03-30T11:07:19.710Z,87318.00
2024-03-30T11:08:19.720Z,87329.00
2024-03-30T11:09:19.720Z,87327.00
2024-03-30T11:10:19.715Z,87322.00
2024-03-30T11:11:19.710Z,87326.00
2024-03-30T11:12:19.706Z,87337.00
2024-03-30T11:13:19.707Z,87334.00
2024-03-30T11:14:19.724Z,87328.00
2024-03-30T11:15:19.735Z,87322.00
2024-03-30T11:16:19.752Z,87333.00
2024-03-30T11:17:19.799Z,87321.00
2024-03-30T11:18:22.963Z,87322.00
2024-03-30T11:19:19.870Z,87320.00
2024-03-30T11:20:19.870Z,87319.00
2024-03-30T11:21:19.862Z,87317.00
2024-03-30T11:22:19.865Z,87309.00
2024-03-30T11:23:19.871Z,87311.00
2024-03-30T11:24:22.729Z,87312.00
2024-03-30T11:25:19.923Z,87335.00
2024-03-30T11:26:19.889Z,87322.00
2024-03-30T11:27:19.888Z,87314.00
2024-03-30T11:28:19.903Z,87320.00
2024-03-30T11:29:19.897Z,87318.00
2024-03-30T11:30:19.882Z,87316.00
2024-03-30T11:31:19.921Z,87311.00
2024-03-30T11:32:19.897Z,87322.00
2024-03-30T11:33:19.890Z,87315.00
2024-03-30T11:34:19.909Z,87316.00
2024-03-30T11:35:19.897Z,87307.00
2024-03-30T11:36:19.903Z,87306.00
2024-03-30T11:37:19.913Z,87315.00
2024-03-30T11:38:29.774Z,87319.00
2024-03-30T11:39:20.908Z,87306.00
2024-03-30T11:40:23.240Z,87304.00
2024-03-30T11:41:19.906Z,87323.00
2024-03-30T11:42:19.913Z,87311.00
2024-03-30T11:43:19.919Z,87314.00
2024-03-30T11:44:19.916Z,87333.00
2024-03-30T11:45:19.902Z,87321.00